createdAt,value
2023-01-06T00:01:32.685Z,7.73
2023-01-06T00:03:59.653Z,7.53
2023-01-06T00:06:31.385Z,8.00
2023-01-06T00:09:02.207Z,7.10
2023-01-06T00:11:29.516Z,7.30
2023-01-06T00:13:56.714Z,8.50
2023-01-06T00:16:24.040Z,7.00
2023-01-06T00:18:55.620Z,8.00
2023-01-06T00:21:22.924Z,6.63
2023-01-06T00:23:49.926Z,6.93
2023-01-06T00:26:17.128Z,6.23
2023-01-06T00:28:44.183Z,6.20
2023-01-06T00:31:13.924Z,6.30
2023-01-06T00:33:41.497Z,6.00
2023-01-06T00:36:10.668Z,6.63
2023-01-06T00:38:38.296Z,5.20
2023-01-06T00:41:29.581Z,5.50
2023-01-06T00:43:57.951Z,5.03
2023-01-06T00:46:28.811Z,5.80
2023-01-06T00:49:04.896Z,5.00
2023-01-06T00:51:33.188Z,4.77
2023-01-06T00:54:00.601Z,4.77
2023-01-06T00:56:27.394Z,4.13
2023-01-06T00:58:54.340Z,4.60
2023-01-06T01:01:21.226Z,4.17
2023-01-06T01:03:48.094Z,4.30
2023-01-06T01:06:16.714Z,4.27
2023-01-06T01:08:44.003Z,3.93
2023-01-06T01:11:35.594Z,3.80
2023-01-06T01:14:02.726Z,3.80
2023-01-06T01:16:29.718Z,3.83
2023-01-06T01:18:57.031Z,3.80
2023-01-06T01:21:23.881Z,4.27
2023-01-06T01:23:50.680Z,4.07
2023-01-06T01:26:18.012Z,3.57
2023-01-06T01:28:44.908Z,4.07
2023-01-06T01:31:13.488Z,4.20
2023-01-06T01:33:40.337Z,4.07
2023-01-06T01:36:09.559Z,4.57
2023-01-06T01:38:36.566Z,4.50
2023-01-06T01:41:04.176Z,5.27
2023-01-06T01:44:23.949Z,5.60
2023-01-06T01:46:51.072Z,4.53
2023-01-06T01:49:24.894Z,4.73
2023-01-06T01:51:54.162Z,4.60
2023-01-06T01:54:29.691Z,4.70
2023-01-06T01:57:01.527Z,4.70
2023-01-06T01:59:32.550Z,4.53
2023-01-06T02:01:59.571Z,4.60
2023-01-06T02:04:28.777Z,4.07
2023-01-06T02:06:55.961Z,4.30
2023-01-06T02:11:58.843Z,4.50
2023-01-06T02:14:27.587Z,4.30
2023-01-06T02:17:05.682Z,4.60
2023-01-06T02:19:53.358Z,4.60
2023-01-06T02:22:39.031Z,4.43
2023-01-06T02:25:23.935Z,4.53
2023-01-06T02:28:21.827Z,4.70
2023-01-06T02:31:13.633Z,4.60
2023-01-06T02:33:59.024Z,5.07
2023-01-06T02:36:40.942Z,4.50
2023-01-06T02:39:37.019Z,4.50
2023-01-06T02:42:32.651Z,4.60
2023-01-06T02:45:14.719Z,4.67
2023-01-06T02:47:57.432Z,4.50
2023-01-06T02:50:29.743Z,5.33
2023-01-06T02:53:03.685Z,4.50
2023-01-06T02:55:44.840Z,5.00
2023-01-06T02:58:30.299Z,4.73
2023-01-06T03:01:15.318Z,4.87
2023-01-06T03:03:45.953Z,5.30
2023-01-06T03:06:17.260Z,5.77
2023-01-06T03:08:49.953Z,4.77
2023-01-06T03:11:17.094Z,5.37
2023-01-06T03:13:50.839Z,5.80
2023-01-06T03:16:18.026Z,5.60
2023-01-06T03:18:47.944Z,5.50
2023-01-06T03:21:23.253Z,5.13
2023-01-06T03:23:50.200Z,4.97
2023-01-06T03:26:17.100Z,5.10
2023-01-06T03:28:44.265Z,4.10
2023-01-06T03:31:16.681Z,3.93
2023-01-06T03:33:49.899Z,3.60
2023-01-06T03:36:40.036Z,3.90
2023-01-06T03:39:22.547Z,4.20
2023-01-06T03:42:35.224Z,3.17
2023-01-06T03:45:18.143Z,3.03
2023-01-06T03:48:09.747Z,3.40
2023-01-06T03:50:45.264Z,2.80
2023-01-06T03:53:47.047Z,3.00
2023-01-06T03:56:55.251Z,2.70
2023-01-06T03:59:26.511Z,2.77
2023-01-06T04:01:53.764Z,2.77
2023-01-06T04:04:21.237Z,2.50
2023-01-06T04:06:48.138Z,2.60
2023-01-06T04:09:15.559Z,2.50
2023-01-06T04:12:01.152Z,2.40
2023-01-06T04:14:27.930Z,2.47
2023-01-06T04:16:55.031Z,2.50
2023-01-06T04:19:21.944Z,2.40
2023-01-06T04:21:49.143Z,2.70
2023-01-06T04:24:16.038Z,2.67
2023-01-06T04:26:42.999Z,3.30
2023-01-06T04:29:09.885Z,2.70
2023-01-06T04:31:36.816Z,2.60
2023-01-06T04:34:03.791Z,2.77
2023-01-06T04:36:31.529Z,2.47
2023-01-06T04:38:58.426Z,2.40
2023-01-06T04:41:25.269Z,2.40
2023-01-06T04:43:52.117Z,2.60
2023-01-06T04:46:18.909Z,1.87
2023-01-06T04:48:45.755Z,2.10
2023-01-06T04:51:12.816Z,1.87
2023-01-06T04:53:41.947Z,1.80
2023-01-06T04:56:11.608Z,1.93
2023-01-06T04:58:38.756Z,2.00
2023-01-06T05:01:09.601Z,1.90
2023-01-06T05:03:36.922Z,2.07
2023-01-06T05:06:06.378Z,1.87
2023-01-06T05:08:33.233Z,2.20
2023-01-06T05:11:01.569Z,1.87
2023-01-06T05:13:29.834Z,2.00
2023-01-06T05:15:56.789Z,1.80
2023-01-06T05:18:24.010Z,2.17
2023-01-06T05:20:55.016Z,1.70
2023-01-06T05:23:22.563Z,2.00
2023-01-06T05:25:53.239Z,1.70
2023-01-06T05:28:20.946Z,1.80
2023-01-06T05:30:47.894Z,1.80
2023-01-06T05:33:15.040Z,2.00
2023-01-06T05:35:41.855Z,1.90
2023-01-06T05:38:08.744Z,2.23
2023-01-06T05:40:35.762Z,1.60
2023-01-06T05:43:02.669Z,1.50
2023-01-06T05:45:29.517Z,1.70
2023-01-06T05:47:57.960Z,1.73
2023-01-06T05:50:24.932Z,1.67
2023-01-06T05:52:51.776Z,1.70
2023-01-06T05:55:18.656Z,1.47
2023-01-06T05:57:45.474Z,1.83
2023-01-06T06:00:13.101Z,1.90
2023-01-06T06:02:40.144Z,1.97
2023-01-06T06:05:07.286Z,1.87
2023-01-06T06:07:34.142Z,1.70
2023-01-06T06:10:00.965Z,2.10
2023-01-06T06:12:28.030Z,1.80
2023-01-06T06:14:54.967Z,2.03
2023-01-06T06:17:21.892Z,1.90
2023-01-06T06:19:48.716Z,1.90
2023-01-06T06:22:15.531Z,1.90
2023-01-06T06:24:42.408Z,2.10
2023-01-06T06:27:09.751Z,1.90
2023-01-06T06:29:36.612Z,1.90
2023-01-06T06:32:03.668Z,1.87
2023-01-06T06:34:31.342Z,2.13
2023-01-06T06:36:58.164Z,1.90
2023-01-06T06:39:25.521Z,1.97
2023-01-06T06:41:52.378Z,2.10
2023-01-06T06:44:19.246Z,1.70
2023-01-06T06:46:46.189Z,2.10
2023-01-06T06:49:13.440Z,1.80
2023-01-06T06:51:40.309Z,1.77
2023-01-06T06:54:07.599Z,1.90
2023-01-06T06:56:34.375Z,1.90
2023-01-06T06:59:01.199Z,1.97
2023-01-06T07:01:28.097Z,1.80
2023-01-06T07:03:55.088Z,2.27
2023-01-06T07:06:25.017Z,1.90
2023-01-06T07:08:53.720Z,1.70
2023-01-06T07:11:21.020Z,1.97
2023-01-06T07:13:47.952Z,1.60
2023-01-06T07:16:14.943Z,2.17
2023-01-06T07:18:41.864Z,1.70
2023-01-06T07:21:08.751Z,1.87
2023-01-06T07:23:35.675Z,1.57
2023-01-06T07:26:03.469Z,1.70
2023-01-06T07:28:32.455Z,2.20
2023-01-06T07:30:59.798Z,1.50
2023-01-06T07:33:26.911Z,1.90
2023-01-06T07:35:54.939Z,1.77
2023-01-06T07:38:22.301Z,1.70
2023-01-06T07:40:49.373Z,1.60
2023-01-06T07:43:17.186Z,1.50
2023-01-06T07:45:47.008Z,2.10
2023-01-06T07:48:13.874Z,2.23
2023-01-06T07:50:40.769Z,2.30
2023-01-06T07:53:08.947Z,2.13
2023-01-06T07:55:36.054Z,2.10
2023-01-06T07:58:08.012Z,2.23
2023-01-06T08:00:35.928Z,2.60
2023-01-06T08:03:07.745Z,2.00
2023-01-06T08:05:43.905Z,2.00
2023-01-06T08:08:12.428Z,2.07
2023-01-06T08:10:41.281Z,2.00
2023-01-06T08:13:09.375Z,1.93
2023-01-06T08:15:37.739Z,2.10
2023-01-06T08:18:04.933Z,1.80
2023-01-06T08:20:31.830Z,2.23
2023-01-06T08:22:58.796Z,2.33
2023-01-06T08:25:25.800Z,2.30
2023-01-06T08:27:52.750Z,2.70
2023-01-06T08:30:22.011Z,2.40
2023-01-06T08:32:49.625Z,2.80
2023-01-06T08:35:16.932Z,3.00
2023-01-06T08:37:43.738Z,2.67
2023-01-06T08:40:10.974Z,3.03
2023-01-06T08:42:37.820Z,3.23
2023-01-06T08:45:05.292Z,2.80
2023-01-06T08:47:32.137Z,3.20
2023-01-06T08:49:59.108Z,2.60
2023-01-06T08:52:26.025Z,3.00
2023-01-06T08:54:52.828Z,3.27
2023-01-06T08:57:19.724Z,3.30
2023-01-06T08:59:46.523Z,2.67
2023-01-06T09:02:13.869Z,2.87
2023-01-06T09:04:40.823Z,3.00
2023-01-06T09:07:07.672Z,2.90
2023-01-06T09:09:34.635Z,2.53
2023-01-06T09:12:01.566Z,2.63
2023-01-06T09:14:29.304Z,2.60
2023-01-06T09:16:56.343Z,2.67
2023-01-06T09:19:23.162Z,2.90
2023-01-06T09:21:50.126Z,2.50
2023-01-06T09:24:17.171Z,2.70
2023-01-06T09:26:43.985Z,3.10
2023-01-06T09:29:11.577Z,3.00
2023-01-06T09:31:38.517Z,3.13
2023-01-06T09:34:05.455Z,2.70
2023-01-06T09:36:34.573Z,2.60
2023-01-06T09:39:01.451Z,2.87
2023-01-06T09:41:47.585Z,2.80
2023-01-06T09:44:47.198Z,3.03
2023-01-06T09:47:19.878Z,2.80
2023-01-06T09:49:49.855Z,2.80
2023-01-06T09:52:41.602Z,2.70
2023-01-06T09:55:26.122Z,2.70
2023-01-06T09:58:05.947Z,2.63
2023-01-06T10:00:51.325Z,2.60
2023-01-06T10:03:20.832Z,2.30
2023-01-06T10:05:53.666Z,2.60
2023-01-06T10:08:55.628Z,2.30
2023-01-06T10:11:28.129Z,2.10
2023-01-06T10:14:21.692Z,2.23
2023-01-06T10:16:57.474Z,2.20
2023-01-06T10:19:46.011Z,2.20
2023-01-06T10:22:21.632Z,2.70
2023-01-06T10:25:00.651Z,2.80
2023-01-06T10:27:36.953Z,2.70
2023-01-06T10:30:07.211Z,2.40
2023-01-06T10:32:36.672Z,2.57
2023-01-06T10:35:03.988Z,2.80
2023-01-06T10:37:39.706Z,2.80
2023-01-06T10:40:27.674Z,2.30
2023-01-06T10:43:00.465Z,2.50
2023-01-06T10:45:43.770Z,2.00
2023-01-06T10:48:24.283Z,2.20
2023-01-06T10:50:51.131Z,1.60
2023-01-06T10:53:18.311Z,2.20
2023-01-06T10:55:54.513Z,2.10
2023-01-06T10:58:28.473Z,2.33
2023-01-06T11:01:18.143Z,1.90
2023-01-06T11:03:45.949Z,1.87
2023-01-06T11:06:28.952Z,1.92
2023-01-06T11:08:56.050Z,2.10
2023-01-06T11:11:28.618Z,1.80
2023-01-06T11:14:02.852Z,1.80
2023-01-06T11:16:33.131Z,1.77
2023-01-06T11:19:08.782Z,1.90
2023-01-06T11:21:49.416Z,2.60
2023-01-06T11:24:22.838Z,1.57
2023-01-06T11:26:57.329Z,1.90
2023-01-06T11:29:33.240Z,1.80
2023-01-06T11:32:11.888Z,1.90
2023-01-06T11:34:39.237Z,1.80
2023-01-06T11:37:06.134Z,1.63
2023-01-06T11:39:36.420Z,1.60
2023-01-06T11:42:10.489Z,1.67
2023-01-06T11:44:40.275Z,1.70
2023-01-06T11:47:16.529Z,1.40
2023-01-06T11:49:59.004Z,3.33
2023-01-06T11:52:33.521Z,1.40
2023-01-06T11:55:13.354Z,1.30
2023-01-06T11:58:16.132Z,1.40
2023-01-06T12:00:47.989Z,1.20
2023-01-06T12:03:31.918Z,1.20
2023-01-06T12:06:04.769Z,1.15
2023-01-06T12:08:46.028Z,1.10
2023-01-06T12:11:34.419Z,1.20
2023-01-06T12:14:13.428Z,1.23
2023-01-06T12:17:08.120Z,1.50
2023-01-06T12:20:03.093Z,1.30
2023-01-06T12:22:38.551Z,1.33
2023-01-06T12:25:10.937Z,1.70
2023-01-06T12:28:04.688Z,1.50
2023-01-06T12:30:36.910Z,1.70
2023-01-06T12:33:27.210Z,1.60
2023-01-06T12:35:57.398Z,1.67
2023-01-06T12:38:38.336Z,2.10
2023-01-06T12:41:28.354Z,1.75
2023-01-06T14:51:21.905Z,1.43
2023-01-06T14:53:58.633Z,1.50
2023-01-06T14:56:29.166Z,2.00
2023-01-06T14:59:04.576Z,2.10
2023-01-06T15:01:35.792Z,1.90
2023-01-06T15:04:04.605Z,2.53
2023-01-06T15:06:32.262Z,2.80
2023-01-06T15:09:20.699Z,2.57
2023-01-06T15:11:47.865Z,2.73
2023-01-06T15:14:29.284Z,2.10
2023-01-06T15:16:59.185Z,1.87
2023-01-06T15:19:26.524Z,2.53
2023-01-06T15:21:54.627Z,3.10
2023-01-06T15:24:28.016Z,3.43
2023-01-06T15:26:57.042Z,3.13
2023-01-06T15:29:25.605Z,4.47
2023-01-06T15:31:54.722Z,4.40
2023-01-06T15:34:27.342Z,4.23
2023-01-06T15:36:56.251Z,3.38
2023-01-06T15:39:28.248Z,4.27
2023-01-06T15:41:56.500Z,4.20
2023-01-06T15:44:23.336Z,4.03
2023-01-06T15:46:52.326Z,4.60
2023-01-06T15:49:31.019Z,5.93
2023-01-06T15:52:08.355Z,5.23
2023-01-06T15:54:38.020Z,4.17
2023-01-06T15:57:16.567Z,3.13
2023-01-06T16:00:00.861Z,3.00
2023-01-06T16:02:30.961Z,3.50
2023-01-06T16:04:59.547Z,2.37
2023-01-06T16:07:43.239Z,2.50
2023-01-06T16:10:30.208Z,2.90
2023-01-06T16:13:18.190Z,2.53
2023-01-06T16:15:51.351Z,2.43
2023-01-06T16:18:29.520Z,2.80
2023-01-06T16:20:57.300Z,4.13
2023-01-06T16:23:32.508Z,3.73
2023-01-06T16:26:21.543Z,3.50
2023-01-06T16:28:50.944Z,7.20
2023-01-06T16:31:34.369Z,6.73
2023-01-06T16:34:20.971Z,6.33
2023-01-06T16:36:49.346Z,7.63
2023-01-06T16:44:26.401Z,7.10
2023-01-06T16:46:53.364Z,5.83
2023-01-06T16:49:21.466Z,6.00
2023-01-06T16:51:48.480Z,6.20
2023-01-06T16:54:20.114Z,5.60
2023-01-06T16:56:47.537Z,5.03
2023-01-06T16:59:17.374Z,4.37
2023-01-06T17:01:45.626Z,5.50
2023-01-06T17:04:13.895Z,5.93
2023-01-06T17:06:43.239Z,5.53
2023-01-06T17:09:21.316Z,10.37
2023-01-06T17:11:49.365Z,13.97
2023-01-06T17:14:18.466Z,19.03
2023-01-06T17:16:47.332Z,16.40
2023-01-06T17:19:29.816Z,14.00
2023-01-06T17:22:17.819Z,10.93
2023-01-06T17:24:44.822Z,11.57
2023-01-06T17:27:23.626Z,12.30
2023-01-06T17:29:51.338Z,10.83
2023-01-06T17:32:21.892Z,11.47
2023-01-06T17:34:49.449Z,13.50
2023-01-06T17:37:23.216Z,14.97
2023-01-06T17:39:50.543Z,14.87
2023-01-06T17:42:17.293Z,13.70
2023-01-06T17:44:48.824Z,11.60
2023-01-06T17:47:15.665Z,13.77
2023-01-06T17:50:00.033Z,16.10
2023-01-06T17:52:32.000Z,15.60
2023-01-06T17:55:44.248Z,17.63
2023-01-06T17:58:22.057Z,18.83
2023-01-06T18:00:49.405Z,18.40
2023-01-06T18:03:26.474Z,18.53
2023-01-06T18:06:05.767Z,20.30
2023-01-06T18:08:36.030Z,18.67
2023-01-06T18:11:11.726Z,17.60
2023-01-06T18:13:41.226Z,16.53
2023-01-06T18:16:29.769Z,16.03
2023-01-06T18:21:45.951Z,18.10
2023-01-06T18:24:36.044Z,17.13
2023-01-06T18:27:21.967Z,16.67
2023-01-06T18:29:49.340Z,15.33
2023-01-06T18:32:22.132Z,17.00
2023-01-06T18:34:54.620Z,25.57
2023-01-06T18:37:24.718Z,26.40
2023-01-06T18:39:54.434Z,22.53
2023-01-06T18:42:38.299Z,19.57
2023-01-06T18:45:07.871Z,32.23
2023-01-06T18:47:38.897Z,16.47
2023-01-06T18:50:27.043Z,21.53
2023-01-06T18:52:55.981Z,42.53
2023-01-06T18:55:27.950Z,28.27
2023-01-06T18:58:25.939Z,21.90
2023-01-06T19:00:56.030Z,17.63
2023-01-06T19:03:48.732Z,19.93
2023-01-06T19:06:15.558Z,18.27
2023-01-06T19:08:44.757Z,15.97
2023-01-06T19:11:19.918Z,14.83
2023-01-06T19:13:48.066Z,34.97
2023-01-06T19:16:30.123Z,15.77
2023-01-06T19:19:24.506Z,19.97
2023-01-06T19:21:52.440Z,22.97
2023-01-06T19:24:28.567Z,55.27
2023-01-06T19:26:58.066Z,34.13
2023-01-06T19:29:32.449Z,18.30
2023-01-06T19:32:17.133Z,20.63
2023-01-06T19:34:44.002Z,18.23
2023-01-06T19:37:16.893Z,21.93
2023-01-06T19:39:50.426Z,17.87
2023-01-06T19:42:23.668Z,27.40
2023-01-06T19:44:54.371Z,21.03
2023-01-06T19:47:25.321Z,18.33
2023-01-06T19:50:00.059Z,14.93
2023-01-06T19:52:41.287Z,13.77
2023-01-06T19:55:14.490Z,12.23
2023-01-06T19:57:44.328Z,12.27
2023-01-06T20:00:37.527Z,12.20
2023-01-06T20:03:06.661Z,12.17
2023-01-06T20:05:33.615Z,15.43
2023-01-06T20:08:00.550Z,13.33
2023-01-06T20:10:27.380Z,13.43
2023-01-06T20:12:54.259Z,12.87
2023-01-06T20:15:21.175Z,13.17
2023-01-06T20:17:48.053Z,13.87
2023-01-06T20:20:15.664Z,12.23
2023-01-06T20:22:44.687Z,12.63
2023-01-06T20:25:11.710Z,13.07
2023-01-06T20:27:38.588Z,12.27
2023-01-06T20:30:06.131Z,13.40
2023-01-06T20:32:33.058Z,12.93
2023-01-06T20:34:59.972Z,13.40
2023-01-06T20:37:26.786Z,14.90
2023-01-06T20:39:53.820Z,16.77
2023-01-06T20:42:21.460Z,16.30
2023-01-06T20:44:48.339Z,17.63
2023-01-06T20:47:15.618Z,18.53
2023-01-06T20:49:42.528Z,19.27
2023-01-06T20:52:09.742Z,19.93
2023-01-06T20:54:36.554Z,19.93
2023-01-06T20:57:03.544Z,19.47
2023-01-06T20:59:30.458Z,19.70
2023-01-06T21:01:57.663Z,18.97
2023-01-06T21:04:24.710Z,18.83
2023-01-06T21:06:51.666Z,17.87
2023-01-06T21:09:18.559Z,18.23
2023-01-06T21:11:45.613Z,21.03
2023-01-06T21:14:12.407Z,19.40
2023-01-06T21:16:39.326Z,20.10
2023-01-06T21:19:06.245Z,20.53
2023-01-06T21:21:33.213Z,21.17
2023-01-06T21:24:00.452Z,21.70
2023-01-06T21:26:27.341Z,21.33
2023-01-06T21:28:54.323Z,20.77
2023-01-06T21:31:22.033Z,19.40
2023-01-06T21:33:48.935Z,19.07
2023-01-06T21:36:15.811Z,19.90
2023-01-06T21:38:42.658Z,19.73
2023-01-06T21:41:28.476Z,20.57
2023-01-06T21:43:55.442Z,19.93
2023-01-06T21:46:22.486Z,19.30
2023-01-06T21:48:49.367Z,19.10
2023-01-06T21:51:16.406Z,18.27
2023-01-06T21:53:43.960Z,17.77
2023-01-06T21:56:11.260Z,16.87
2023-01-06T21:58:38.081Z,15.77
2023-01-06T22:01:05.406Z,15.87
2023-01-06T22:03:32.373Z,15.77
2023-01-06T22:06:01.698Z,15.47
2023-01-06T22:08:30.591Z,14.90
2023-01-06T22:10:57.741Z,14.23
2023-01-06T22:13:25.496Z,13.80
2023-01-06T22:15:52.615Z,14.37
2023-01-06T22:18:19.656Z,13.87
2023-01-06T22:20:46.740Z,14.30
2023-01-06T22:23:19.351Z,14.87
2023-01-06T22:25:46.285Z,13.97
2023-01-06T22:28:13.114Z,15.23
2023-01-06T22:30:40.016Z,13.50
2023-01-06T22:33:06.948Z,13.53
2023-01-06T22:35:33.876Z,13.90
2023-01-06T22:38:00.949Z,13.67
2023-01-06T22:40:28.392Z,13.37
2023-01-06T22:42:56.788Z,12.33
2023-01-06T22:45:23.889Z,13.30
2023-01-06T22:47:50.750Z,13.00
2023-01-06T22:50:18.074Z,12.97
2023-01-06T22:52:44.860Z,13.40
2023-01-06T22:55:11.737Z,13.87
2023-01-06T22:57:38.655Z,14.60
2023-01-06T23:00:12.284Z,14.33
2023-01-06T23:02:39.315Z,15.97
2023-01-06T23:05:06.566Z,14.83
2023-01-06T23:07:42.552Z,15.00
2023-01-06T23:10:11.716Z,15.70
2023-01-06T23:12:40.392Z,15.07
2023-01-06T23:15:08.703Z,16.10
2023-01-06T23:17:38.398Z,15.43
2023-01-06T23:20:06.019Z,16.13
2023-01-06T23:22:33.053Z,16.10
2023-01-06T23:24:59.906Z,19.75
2023-01-06T23:27:26.814Z,17.33
2023-01-06T23:29:54.040Z,18.70
2023-01-06T23:32:20.959Z,17.57
2023-01-06T23:34:47.883Z,18.60
2023-01-06T23:37:14.768Z,18.13
2023-01-06T23:39:41.553Z,18.63
2023-01-06T23:42:08.651Z,17.83
2023-01-06T23:44:35.522Z,19.13
2023-01-06T23:47:02.426Z,18.53
2023-01-06T23:49:29.262Z,19.10
2023-01-06T23:51:56.071Z,18.83
2023-01-06T23:54:23.028Z,19.73
2023-01-06T23:56:49.794Z,18.83
2023-01-06T23:59:16.653Z,18.33
